createdAt,value
2023-01-29T00:00:37.964Z,29.02
2023-01-29T00:03:05.810Z,28.13
2023-01-29T00:05:35.179Z,26.48
2023-01-29T00:08:02.365Z,26.42
2023-01-29T00:10:29.558Z,27.83
2023-01-29T00:13:16.942Z,29.85
2023-01-29T00:15:58.992Z,29.80
2023-01-29T00:18:27.437Z,30.52
2023-01-29T00:20:54.683Z,28.17
2023-01-29T00:23:22.322Z,29.45
2023-01-29T00:26:08.971Z,29.55
2023-01-29T00:29:12.892Z,28.67
2023-01-29T00:32:13.999Z,32.22
2023-01-29T00:34:54.535Z,32.75
2023-01-29T00:37:21.677Z,35.13
2023-01-29T00:39:48.683Z,32.40
2023-01-29T00:42:34.229Z,32.95
2023-01-29T00:45:01.228Z,34.50
2023-01-29T00:47:33.326Z,32.05
2023-01-29T00:50:01.913Z,32.03
2023-01-29T00:52:29.612Z,35.38
2023-01-29T00:54:59.008Z,32.67
2023-01-29T00:57:28.472Z,31.88
2023-01-29T00:59:55.926Z,30.38
2023-01-29T01:02:42.295Z,31.58
2023-01-29T01:05:18.304Z,29.88
2023-01-29T01:07:51.293Z,32.50
2023-01-29T01:10:32.129Z,30.40
2023-01-29T01:13:20.931Z,36.47
2023-01-29T01:16:01.917Z,31.92
2023-01-29T01:18:32.080Z,29.33
2023-01-29T01:20:59.745Z,30.52
2023-01-29T01:23:28.034Z,28.33
2023-01-29T01:26:15.003Z,28.05
2023-01-29T01:29:15.918Z,32.15
2023-01-29T01:32:17.085Z,31.23
2023-01-29T01:35:17.910Z,29.08
2023-01-29T01:38:19.026Z,31.58
2023-01-29T01:40:53.882Z,32.33
2023-01-29T01:43:21.015Z,28.92
2023-01-29T01:45:48.659Z,26.33
2023-01-29T01:48:27.182Z,29.13
2023-01-29T01:51:03.555Z,29.27
2023-01-29T01:53:38.597Z,31.98
2023-01-29T01:56:09.514Z,28.95
2023-01-29T01:58:58.879Z,29.85
2023-01-29T02:01:30.031Z,27.15
2023-01-29T02:04:21.754Z,29.55
2023-01-29T02:07:08.552Z,33.80
2023-01-29T02:09:41.497Z,33.40
2023-01-29T02:12:30.134Z,31.63
2023-01-29T02:15:11.772Z,28.63
2023-01-29T02:17:39.899Z,27.00
2023-01-29T02:20:24.919Z,27.80
2023-01-29T02:23:34.216Z,30.60
2023-01-29T02:27:12.928Z,29.48
2023-01-29T02:30:19.977Z,31.50
2023-01-29T02:33:37.271Z,27.02
2023-01-29T02:36:35.167Z,30.52
2023-01-29T02:39:15.680Z,26.75
2023-01-29T02:42:06.308Z,26.08
2023-01-29T02:44:54.395Z,28.50
2023-01-29T02:47:36.657Z,25.27
2023-01-29T02:50:26.602Z,27.05
2023-01-29T02:53:16.175Z,30.88
2023-01-29T02:56:22.452Z,30.48
2023-01-29T02:59:01.031Z,26.13
2023-01-29T03:01:40.791Z,28.85
2023-01-29T03:04:14.548Z,28.58
2023-01-29T03:06:49.669Z,30.25
2023-01-29T03:09:28.995Z,31.65
2023-01-29T03:12:42.978Z,28.98
2023-01-29T03:15:53.999Z,28.85
2023-01-29T03:19:02.111Z,27.83
2023-01-29T03:22:06.055Z,26.90
2023-01-29T03:25:16.051Z,29.20
2023-01-29T03:28:10.867Z,29.60
2023-01-29T03:31:32.124Z,30.10
2023-01-29T03:34:37.063Z,27.70
2023-01-29T03:37:14.175Z,27.52
2023-01-29T03:39:42.397Z,31.58
2023-01-29T03:42:21.338Z,28.55
2023-01-29T03:44:54.427Z,28.50
2023-01-29T03:48:12.622Z,27.33
2023-01-29T03:51:00.906Z,27.52
2023-01-29T03:53:40.048Z,29.05
2023-01-29T03:56:34.842Z,28.13
2023-01-29T03:59:05.747Z,25.05
2023-01-29T04:02:26.090Z,28.60
2023-01-29T04:05:36.065Z,28.63
2023-01-29T04:08:31.116Z,26.10
2023-01-29T04:11:11.517Z,26.33
2023-01-29T04:14:00.135Z,25.80
2023-01-29T04:17:09.054Z,25.70
2023-01-29T04:20:52.027Z,25.65
2023-01-29T04:23:33.194Z,26.40
2023-01-29T04:26:23.795Z,25.58
2023-01-29T04:29:34.039Z,26.10
2023-01-29T04:32:41.796Z,23.05
2023-01-29T04:35:26.582Z,25.90
2023-01-29T04:38:08.267Z,27.10
2023-01-29T04:40:59.569Z,24.58
2023-01-29T04:44:11.673Z,21.90
2023-01-29T04:47:30.220Z,24.33
2023-01-29T04:50:43.405Z,25.50
2023-01-29T04:53:22.942Z,26.17
2023-01-29T04:55:59.868Z,28.30
2023-01-29T04:59:08.131Z,26.40
2023-01-29T05:01:42.690Z,30.85
2023-01-29T05:04:25.181Z,30.00
2023-01-29T05:06:53.544Z,29.63
2023-01-29T05:09:21.772Z,27.13
2023-01-29T05:12:09.045Z,26.23
2023-01-29T05:14:52.451Z,25.88
2023-01-29T05:17:20.749Z,27.58
2023-01-29T05:20:10.283Z,23.80
2023-01-29T05:23:11.024Z,24.08
2023-01-29T05:25:52.934Z,26.73
2023-01-29T05:28:20.350Z,25.27
2023-01-29T05:31:09.263Z,26.00
2023-01-29T05:33:52.774Z,23.92
2023-01-29T05:36:33.994Z,24.77
2023-01-29T05:39:06.822Z,25.10
2023-01-29T05:41:44.525Z,22.02
2023-01-29T05:44:28.405Z,22.92
2023-01-29T05:47:06.843Z,26.95
2023-01-29T05:52:38.563Z,21.13
2023-01-29T05:55:22.947Z,22.60
2023-01-29T05:58:26.251Z,24.77
2023-01-29T06:01:29.265Z,21.67
2023-01-29T06:04:21.058Z,21.80
2023-01-29T06:06:51.162Z,23.85
2023-01-29T06:09:21.616Z,23.80
2023-01-29T06:12:05.012Z,27.17
2023-01-29T06:14:50.591Z,23.77
2023-01-29T06:17:23.449Z,22.08
2023-01-29T06:19:57.584Z,23.58
2023-01-29T06:22:49.708Z,23.00
2023-01-29T06:25:24.307Z,21.85
2023-01-29T06:28:13.240Z,25.13
2023-01-29T06:31:37.407Z,25.65
2023-01-29T06:34:21.731Z,27.17
2023-01-29T06:42:38.870Z,31.63
2023-01-29T06:45:19.871Z,28.30
2023-01-29T06:47:47.032Z,29.60
2023-01-29T06:50:14.088Z,27.80
2023-01-29T06:52:41.318Z,26.30
2023-01-29T06:55:08.857Z,29.63
2023-01-29T06:57:36.318Z,28.85
2023-01-29T07:00:04.614Z,30.77
2023-01-29T07:03:05.989Z,28.23
2023-01-29T07:10:10.287Z,31.97
2023-01-29T07:12:57.169Z,31.30
2023-01-29T07:15:58.249Z,28.65
2023-01-29T07:18:41.315Z,30.05
2023-01-29T07:21:08.657Z,32.03
2023-01-29T07:23:36.140Z,25.58
2023-01-29T07:26:05.088Z,29.17
2023-01-29T07:28:32.417Z,33.42
2023-01-29T07:31:20.256Z,32.05
2023-01-29T07:34:21.127Z,30.85
2023-01-29T07:37:02.255Z,31.77
2023-01-29T07:39:29.496Z,38.33
2023-01-29T07:41:56.445Z,34.97
2023-01-29T07:44:27.218Z,32.15
2023-01-29T07:47:23.096Z,35.42
2023-01-29T07:50:04.841Z,33.08
2023-01-29T07:52:37.418Z,33.97
2023-01-29T07:55:07.035Z,35.75
2023-01-29T07:57:39.826Z,40.17
2023-01-29T08:00:10.440Z,35.90
2023-01-29T08:02:41.833Z,32.28
2023-01-29T08:05:09.623Z,34.17
2023-01-29T08:07:39.939Z,35.53
2023-01-29T08:10:09.587Z,35.08
2023-01-29T08:13:03.257Z,32.42
2023-01-29T08:15:47.795Z,33.15
2023-01-29T08:18:18.554Z,35.85
2023-01-29T08:21:06.530Z,36.10
2023-01-29T08:24:07.206Z,31.90
2023-01-29T08:26:48.750Z,29.95
2023-01-29T08:29:36.499Z,30.15
2023-01-29T08:35:10.037Z,30.77
2023-01-29T08:37:45.232Z,31.25
2023-01-29T08:40:15.981Z,34.47
2023-01-29T08:42:45.345Z,30.88
2023-01-29T08:45:12.571Z,33.25
2023-01-29T08:47:49.153Z,32.80
2023-01-29T08:50:18.277Z,32.05
2023-01-29T08:52:47.417Z,29.15
2023-01-29T08:55:27.221Z,31.58
2023-01-29T08:58:28.159Z,30.25
2023-01-29T09:01:29.260Z,32.13
2023-01-29T09:04:10.435Z,26.60
2023-01-29T09:06:37.633Z,34.17
2023-01-29T09:09:04.881Z,29.00
2023-01-29T09:11:52.192Z,33.83
2023-01-29T09:14:37.582Z,32.45
2023-01-29T09:17:05.160Z,32.20
2023-01-29T09:19:33.632Z,30.58
2023-01-29T09:22:00.643Z,28.58
2023-01-29T09:24:40.129Z,33.72
2023-01-29T09:27:30.147Z,32.45
2023-01-29T09:30:31.340Z,29.73
2023-01-29T09:33:12.535Z,35.20
2023-01-29T09:35:43.657Z,34.40
2023-01-29T09:38:11.329Z,34.42
2023-01-29T09:40:54.209Z,36.53
2023-01-29T09:43:39.777Z,33.40
2023-01-29T09:46:30.855Z,32.83
2023-01-29T09:49:32.243Z,34.60
2023-01-29T09:52:06.192Z,34.90
2023-01-29T09:57:16.349Z,33.72
2023-01-29T10:00:15.013Z,33.50
2023-01-29T10:03:55.469Z,35.10
2023-01-29T10:06:51.369Z,32.08
2023-01-29T10:09:43.416Z,31.02
2023-01-29T10:12:58.249Z,33.88
2023-01-29T10:15:57.637Z,32.85
2023-01-29T10:18:53.186Z,33.28
2023-01-29T10:21:46.255Z,36.88
2023-01-29T10:24:38.945Z,34.63
2023-01-29T10:27:17.796Z,34.03
2023-01-29T10:30:08.218Z,38.65
2023-01-29T10:32:50.423Z,36.13
2023-01-29T10:35:23.770Z,35.33
2023-01-29T10:38:15.216Z,33.08
2023-01-29T10:44:39.664Z,34.55
2023-01-29T10:47:20.297Z,32.25
2023-01-29T10:50:34.473Z,34.50
2023-01-29T10:57:29.748Z,34.55
2023-01-29T11:00:13.424Z,31.75
2023-01-29T11:02:46.989Z,30.67
2023-01-29T11:05:44.238Z,34.80
2023-01-29T11:08:17.023Z,33.25
2023-01-29T11:11:07.539Z,33.33
2023-01-29T11:14:06.227Z,31.45
2023-01-29T11:17:07.278Z,31.05
2023-01-29T11:20:31.325Z,30.80
2023-01-29T11:23:46.355Z,31.42
2023-01-29T11:26:27.121Z,25.75
2023-01-29T11:29:14.423Z,31.40
2023-01-29T11:32:03.657Z,26.55
2023-01-29T11:34:33.656Z,27.17
2023-01-29T11:37:15.735Z,28.05
2023-01-29T11:39:51.639Z,27.35
2023-01-29T11:42:23.337Z,26.92
2023-01-29T11:44:50.482Z,27.02
2023-01-29T11:47:24.492Z,26.30
2023-01-29T11:50:00.545Z,26.02
2023-01-29T11:52:36.807Z,30.23
2023-01-29T11:55:07.446Z,24.95
2023-01-29T11:58:02.416Z,25.98
2023-01-29T12:00:49.464Z,25.00
2023-01-29T12:03:23.885Z,26.25
2023-01-29T12:06:01.435Z,23.58
2023-01-29T12:08:36.949Z,25.20
2023-01-29T12:11:37.267Z,26.77
2023-01-29T12:14:38.802Z,24.35
2023-01-29T12:17:18.612Z,22.83
2023-01-29T12:19:55.619Z,24.35
2023-01-29T12:22:29.966Z,23.50
2023-01-29T12:25:04.344Z,19.85
2023-01-29T12:28:09.584Z,24.67
2023-01-29T12:31:19.367Z,24.50
2023-01-29T12:34:28.199Z,27.10
2023-01-29T12:37:38.363Z,25.45
2023-01-29T12:40:26.869Z,21.65
2023-01-29T12:42:59.854Z,21.48
2023-01-29T12:45:29.537Z,26.15
2023-01-29T12:48:06.235Z,25.95
2023-01-29T12:50:35.482Z,23.98
2023-01-29T12:53:07.925Z,22.10
2023-01-29T12:55:44.106Z,19.27
2023-01-29T12:58:23.484Z,23.67
2023-01-29T13:01:38.495Z,22.77
2023-01-29T13:04:31.280Z,19.98
2023-01-29T13:07:23.820Z,24.00
2023-01-29T13:10:07.037Z,23.08
2023-01-29T13:13:05.398Z,22.73
2023-01-29T13:16:07.457Z,25.42
2023-01-29T13:18:54.160Z,26.95
2023-01-29T13:21:31.660Z,24.33
2023-01-29T13:24:21.083Z,22.25
2023-01-29T13:26:49.705Z,19.23
2023-01-29T13:29:40.713Z,22.40
2023-01-29T13:32:39.921Z,21.77
2023-01-29T13:35:33.663Z,23.75
2023-01-29T13:38:36.314Z,20.10
2023-01-29T13:41:06.907Z,16.38
2023-01-29T13:43:41.874Z,17.10
2023-01-29T13:46:18.264Z,19.27
2023-01-29T13:48:50.313Z,18.23
2023-01-29T13:51:22.378Z,16.05
2023-01-29T13:54:06.668Z,19.42
2023-01-29T13:56:34.281Z,17.40
2023-01-29T13:59:03.777Z,17.63
2023-01-29T14:01:49.585Z,25.65
2023-01-29T14:04:21.901Z,22.05
2023-01-29T14:07:13.403Z,17.95
2023-01-29T14:10:19.089Z,15.00
2023-01-29T14:13:26.517Z,16.35
2023-01-29T14:16:10.696Z,18.42
2023-01-29T14:21:28.662Z,19.00
2023-01-29T14:24:12.756Z,20.40
2023-01-29T14:26:45.720Z,18.90
2023-01-29T14:29:41.498Z,17.20
2023-01-29T14:32:25.324Z,16.00
2023-01-29T14:35:01.548Z,18.17
2023-01-29T14:37:37.920Z,18.45
2023-01-29T14:40:26.489Z,20.25
2023-01-29T14:43:32.404Z,19.15
2023-01-29T14:46:36.554Z,19.45
2023-01-29T14:49:04.242Z,15.98
2023-01-29T14:51:38.627Z,18.67
2023-01-29T14:54:27.186Z,16.27
2023-01-29T14:57:06.063Z,16.67
2023-01-29T14:59:38.360Z,18.52
2023-01-29T15:02:39.958Z,19.35
2023-01-29T15:05:32.316Z,18.23
2023-01-29T15:08:43.745Z,17.67
2023-01-29T15:11:52.606Z,18.40
2023-01-29T15:15:01.929Z,20.33
2023-01-29T15:17:40.336Z,19.75
2023-01-29T15:20:27.524Z,19.60
2023-01-29T15:23:14.415Z,19.00
2023-01-29T15:26:04.244Z,17.83
2023-01-29T15:28:33.828Z,17.45
2023-01-29T15:31:27.450Z,20.13
2023-01-29T15:34:08.274Z,18.80
2023-01-29T15:36:39.921Z,20.85
2023-01-29T15:39:09.988Z,20.70
2023-01-29T15:41:37.609Z,22.80
2023-01-29T15:44:13.716Z,22.33
2023-01-29T15:46:44.078Z,19.77
2023-01-29T15:49:22.835Z,21.02
2023-01-29T15:52:13.552Z,24.02
2023-01-29T15:55:19.755Z,21.97
2023-01-29T15:58:01.786Z,20.50
2023-01-29T16:00:30.408Z,22.42
2023-01-29T16:04:17.675Z,20.35
2023-01-29T16:07:02.194Z,20.05
2023-01-29T16:09:30.081Z,19.08
2023-01-29T16:12:18.419Z,19.42
2023-01-29T16:15:01.260Z,19.35
2023-01-29T16:17:35.556Z,20.60
2023-01-29T16:20:49.001Z,21.52
2023-01-29T16:23:35.388Z,22.40
2023-01-29T16:26:07.603Z,23.58
2023-01-29T16:28:44.964Z,21.25
2023-01-29T16:31:40.578Z,23.30
2023-01-29T16:34:37.369Z,25.02
2023-01-29T16:37:33.661Z,27.77
2023-01-29T16:40:01.029Z,22.48
2023-01-29T16:42:30.756Z,24.05
2023-01-29T16:45:21.086Z,22.08
2023-01-29T16:48:22.263Z,23.55
2023-01-29T16:50:55.579Z,21.92
2023-01-29T16:53:25.350Z,22.98
2023-01-29T16:56:12.498Z,24.02
2023-01-29T16:59:15.389Z,20.00
2023-01-29T17:02:18.476Z,23.05
2023-01-29T17:05:18.446Z,24.27
2023-01-29T17:08:05.482Z,19.63
2023-01-29T17:10:52.397Z,22.95
2023-01-29T17:13:52.523Z,23.73
2023-01-29T17:16:36.343Z,43.03
2023-01-29T17:19:32.522Z,42.97
2023-01-29T17:22:15.197Z,25.10
2023-01-29T17:25:02.462Z,26.42
2023-01-29T17:27:46.063Z,31.20
2023-01-29T17:30:36.504Z,42.78
2023-01-29T17:33:22.854Z,37.03
2023-01-29T17:35:50.664Z,37.30
2023-01-29T17:38:26.071Z,40.40
2023-01-29T17:41:07.357Z,41.08
2023-01-29T17:43:35.135Z,38.55
2023-01-29T17:46:02.565Z,37.85
2023-01-29T17:48:31.081Z,36.08
2023-01-29T17:51:18.449Z,39.15
2023-01-29T17:54:19.600Z,35.40
2023-01-29T17:57:20.947Z,36.05
2023-01-29T18:00:01.699Z,33.17
2023-01-29T18:02:30.061Z,34.83
2023-01-29T18:05:17.785Z,29.35
2023-01-29T18:07:58.271Z,29.92
2023-01-29T18:10:25.479Z,26.83
2023-01-29T18:13:12.579Z,25.77
2023-01-29T18:15:53.333Z,28.88
2023-01-29T18:18:22.387Z,28.50
2023-01-29T18:20:50.621Z,33.03
2023-01-29T18:23:17.903Z,25.50
2023-01-29T18:25:45.363Z,30.65
2023-01-29T18:28:32.539Z,26.38
2023-01-29T18:31:33.473Z,26.35
2023-01-29T18:34:14.212Z,28.65
2023-01-29T18:36:41.387Z,27.80
2023-01-29T18:39:08.647Z,28.45
2023-01-29T18:41:35.886Z,25.73
2023-01-29T18:44:03.028Z,23.33
2023-01-29T18:46:30.197Z,25.50
2023-01-29T18:48:57.360Z,28.45
2023-01-29T18:51:24.400Z,26.95
2023-01-29T18:53:52.473Z,25.35
2023-01-29T18:56:20.016Z,27.52
2023-01-29T18:58:51.899Z,24.98
2023-01-29T19:01:23.708Z,30.55
2023-01-29T19:04:10.545Z,28.67
2023-01-29T19:07:12.527Z,25.50
2023-01-29T19:09:58.776Z,28.58
2023-01-29T19:12:48.502Z,29.83
2023-01-29T19:15:29.749Z,29.02
2023-01-29T19:17:57.568Z,29.83
2023-01-29T19:20:24.891Z,32.00
2023-01-29T19:22:52.091Z,32.30
2023-01-29T19:25:19.938Z,32.08
2023-01-29T19:27:47.723Z,34.28
2023-01-29T19:30:34.699Z,35.83
2023-01-29T19:33:15.838Z,29.85
2023-01-29T19:35:46.560Z,29.92
2023-01-29T19:38:19.003Z,26.95
2023-01-29T19:41:06.486Z,30.00
2023-01-29T19:43:48.400Z,27.42
2023-01-29T19:46:16.004Z,34.15
2023-01-29T19:48:43.429Z,40.20
2023-01-29T19:51:12.382Z,36.47
2023-01-29T19:53:44.308Z,38.83
2023-01-29T19:56:15.213Z,34.58
2023-01-29T19:58:43.296Z,34.10
2023-01-29T20:01:16.784Z,41.00
2023-01-29T20:03:48.580Z,41.40
2023-01-29T20:06:18.965Z,41.38
2023-01-29T20:08:46.926Z,39.85
2023-01-29T20:11:15.568Z,42.92
2023-01-29T20:14:05.576Z,43.15
2023-01-29T20:17:07.847Z,37.63
2023-01-29T20:20:10.572Z,41.03
2023-01-29T20:22:51.727Z,35.90
2023-01-29T20:25:39.547Z,33.22
2023-01-29T20:28:20.757Z,35.97
2023-01-29T20:31:07.739Z,33.97
2023-01-29T20:33:48.733Z,33.50
2023-01-29T20:36:16.584Z,34.72
2023-01-29T20:38:45.171Z,34.80
2023-01-29T20:41:17.938Z,32.20
2023-01-29T20:43:51.066Z,34.13
2023-01-29T20:46:19.833Z,34.13
2023-01-29T20:48:47.377Z,33.25
2023-01-29T20:51:17.833Z,31.60
2023-01-29T20:53:58.714Z,32.83
2023-01-29T20:56:45.795Z,36.72
2023-01-29T20:59:17.708Z,32.33
2023-01-29T21:01:47.290Z,34.00
2023-01-29T21:04:17.579Z,33.47
2023-01-29T21:06:45.835Z,37.30
2023-01-29T21:09:17.032Z,35.67
2023-01-29T21:12:04.703Z,33.80
2023-01-29T21:15:05.649Z,31.65
2023-01-29T21:18:10.556Z,36.15
2023-01-29T21:23:42.253Z,34.42
2023-01-29T21:26:30.659Z,34.63
2023-01-29T21:29:35.252Z,35.38
2023-01-29T21:32:16.619Z,36.33
2023-01-29T21:34:44.864Z,37.40
2023-01-29T21:37:12.096Z,38.42
2023-01-29T21:39:39.547Z,43.30
2023-01-29T21:42:45.596Z,38.72
2023-01-29T21:45:46.629Z,38.30
2023-01-29T21:48:27.509Z,39.92
2023-01-29T21:50:54.744Z,39.05
2023-01-29T21:53:22.838Z,36.05
2023-01-29T21:55:56.812Z,36.47
2023-01-29T21:59:00.760Z,40.50
2023-01-29T22:01:37.867Z,36.60
2023-01-29T22:04:08.836Z,34.35
2023-01-29T22:06:35.964Z,33.58
2023-01-29T22:09:03.091Z,40.80
2023-01-29T22:11:53.135Z,43.30
2023-01-29T22:14:51.638Z,41.13
2023-01-29T22:17:52.555Z,38.95
2023-01-29T22:21:22.259Z,38.42
2023-01-29T22:23:53.394Z,37.55
2023-01-29T22:26:21.836Z,37.42
2023-01-29T22:28:49.256Z,39.33
2023-01-29T22:31:16.728Z,36.83
2023-01-29T22:33:43.787Z,38.85
2023-01-29T22:36:11.279Z,37.03
2023-01-29T22:38:38.503Z,40.92
2023-01-29T22:41:05.675Z,36.35
2023-01-29T22:43:52.658Z,38.53
2023-01-29T22:46:33.321Z,33.45
2023-01-29T22:49:00.415Z,36.40
2023-01-29T22:51:27.838Z,39.28
2023-01-29T22:53:56.697Z,38.38
2023-01-29T22:56:43.562Z,39.45
2023-01-29T22:59:44.554Z,33.83
2023-01-29T23:02:45.594Z,40.17
2023-01-29T23:05:47.654Z,36.22
2023-01-29T23:08:25.637Z,34.63
2023-01-29T23:10:53.067Z,35.17
2023-01-29T23:13:40.631Z,36.10
2023-01-29T23:16:27.658Z,32.55
2023-01-29T23:18:56.990Z,35.73
2023-01-29T23:21:26.431Z,34.10
2023-01-29T23:24:10.210Z,33.63
2023-01-29T23:27:05.341Z,33.03
2023-01-29T23:30:02.732Z,29.58
2023-01-29T23:33:06.515Z,31.13
2023-01-29T23:36:07.638Z,33.58
2023-01-29T23:38:51.304Z,31.57
2023-01-29T23:41:21.479Z,30.92
2023-01-29T23:43:56.465Z,33.83
2023-01-29T23:46:25.305Z,29.45
2023-01-29T23:48:52.769Z,31.45
2023-01-29T23:51:20.065Z,35.05
2023-01-29T23:53:49.807Z,31.65
2023-01-29T23:56:20.354Z,30.63
2023-01-29T23:58:55.474Z,31.45
